createdAt,value
2022-09-10T03:03:03.262Z,12.70
2022-09-10T03:05:30.047Z,12.70
2022-09-10T03:07:57.251Z,12.69
2022-09-10T03:10:24.519Z,12.68
2022-09-10T03:12:51.340Z,12.68
2022-09-10T03:15:20.985Z,12.67
2022-09-10T03:17:47.659Z,12.66
2022-09-10T03:20:14.592Z,12.66
2022-09-10T03:22:41.347Z,12.64
2022-09-10T03:25:08.112Z,12.64
2022-09-10T03:27:35.145Z,12.63
2022-09-10T03:30:03.177Z,12.63
2022-09-10T03:32:32.127Z,12.63
2022-09-10T03:35:00.019Z,12.62
2022-09-10T03:37:26.844Z,12.60
2022-09-10T03:39:53.539Z,12.59
2022-09-10T03:42:20.314Z,12.56
2022-09-10T03:44:47.548Z,12.52
2022-09-10T03:47:14.293Z,12.49
2022-09-10T03:49:40.976Z,12.47
2022-09-10T03:52:07.883Z,12.46
2022-09-10T03:54:34.522Z,12.43
2022-09-10T03:57:03.132Z,12.43
2022-09-10T03:59:29.986Z,12.41
2022-09-10T04:01:57.290Z,12.41
2022-09-10T04:04:24.029Z,12.39
2022-09-10T04:06:53.154Z,12.35
2022-09-10T04:09:20.232Z,12.34
2022-09-10T04:11:47.988Z,12.33
2022-09-10T04:14:15.726Z,12.31
2022-09-10T04:16:42.425Z,12.29
2022-09-10T04:19:09.759Z,12.28
2022-09-10T04:21:36.496Z,12.25
2022-09-10T04:24:06.429Z,12.22
2022-09-10T04:26:33.054Z,12.23
2022-09-10T04:28:59.774Z,12.26
2022-09-10T04:31:27.478Z,12.26
2022-09-10T04:33:54.147Z,12.28
2022-09-10T04:36:23.602Z,12.27
2022-09-10T04:38:50.190Z,12.27
2022-09-10T04:41:18.229Z,12.26
2022-09-10T04:43:45.232Z,12.28
2022-09-10T04:46:12.105Z,12.26
2022-09-10T04:48:39.743Z,12.17
2022-09-10T04:51:16.007Z,12.13
2022-09-10T04:53:43.303Z,12.11
2022-09-10T04:56:10.499Z,12.08
2022-09-10T04:58:39.054Z,12.03
2022-09-10T05:01:06.747Z,11.97
2022-09-10T05:03:34.164Z,11.94
2022-09-10T05:06:03.712Z,11.92
2022-09-10T05:08:30.993Z,11.88
2022-09-10T05:11:00.491Z,11.85
2022-09-10T05:13:27.537Z,11.82
2022-09-10T05:15:59.056Z,11.80
2022-09-10T05:18:28.472Z,11.83
2022-09-10T05:20:55.180Z,11.84
2022-09-10T05:23:21.965Z,11.87
2022-09-10T05:25:48.848Z,11.89
2022-09-10T05:28:16.489Z,11.90
2022-09-10T05:30:49.508Z,11.87
2022-09-10T05:33:18.126Z,11.81
2022-09-10T05:35:44.692Z,11.76
2022-09-10T05:38:14.122Z,11.69
2022-09-10T05:40:42.943Z,11.63
2022-09-10T05:43:11.780Z,11.66
2022-09-10T05:45:38.716Z,11.67
2022-09-10T05:48:05.519Z,11.66
2022-09-10T05:50:32.171Z,11.63
2022-09-10T05:52:58.775Z,11.60
2022-09-10T05:55:25.397Z,11.61
2022-09-10T05:57:52.340Z,11.59
2022-09-10T06:00:21.533Z,11.60
2022-09-10T06:02:48.342Z,11.57
2022-09-10T06:05:15.303Z,11.57
2022-09-10T06:07:41.892Z,11.57
2022-09-10T06:10:08.971Z,11.61
2022-09-10T06:12:38.752Z,11.64
2022-09-10T06:15:07.224Z,11.68
2022-09-10T06:17:34.863Z,11.71
2022-09-10T06:20:01.517Z,11.70
2022-09-10T06:22:28.137Z,11.70
2022-09-10T06:24:55.546Z,11.70
2022-09-10T06:27:23.332Z,11.70
2022-09-10T06:29:49.961Z,11.73
2022-09-10T06:32:16.586Z,11.74
2022-09-10T06:34:43.263Z,11.79
2022-09-10T06:37:10.121Z,11.84
2022-09-10T06:39:36.847Z,11.89
2022-09-10T06:42:03.541Z,11.89
2022-09-10T06:44:30.141Z,11.90
2022-09-10T06:47:39.081Z,11.94
2022-09-10T06:49:43.378Z,11.97
2022-09-10T06:52:11.564Z,12.01
2022-09-10T06:54:38.136Z,12.07
2022-09-10T06:57:05.175Z,12.11
2022-09-10T06:59:31.747Z,12.15
2022-09-10T07:02:02.980Z,12.18
2022-09-10T07:04:33.692Z,12.19
2022-09-10T07:07:30.556Z,12.23
2022-09-10T07:21:58.414Z,12.46
2022-09-10T07:39:24.986Z,12.83
2022-09-10T07:42:09.166Z,12.90
2022-09-10T07:44:54.781Z,12.96
2022-09-10T07:47:38.470Z,13.02
2022-09-10T08:19:24.944Z,14.20
2022-09-10T08:23:13.360Z,14.30
2022-09-10T08:26:24.895Z,14.47
2022-09-10T08:29:09.063Z,14.65
2022-09-10T08:31:54.646Z,14.79
2022-09-10T08:34:30.155Z,14.87
2022-09-10T08:37:50.947Z,15.03
2022-09-10T08:40:37.298Z,15.22
2022-09-10T08:43:47.616Z,15.39
2022-09-10T08:46:56.643Z,15.62
2022-09-10T08:49:51.744Z,16.05
2022-09-10T08:52:59.583Z,16.52
2022-09-10T08:55:36.275Z,17.02
2022-09-10T08:58:23.535Z,17.25
2022-09-10T09:01:22.177Z,17.08
2022-09-10T09:04:21.172Z,17.77
2022-09-10T09:07:19.394Z,17.97
2022-09-10T09:09:59.388Z,19.10
2022-09-10T09:12:58.157Z,19.54
2022-09-10T09:16:13.422Z,18.74
2022-09-10T09:22:38.075Z,18.07
2022-09-10T09:26:25.550Z,17.57
2022-09-10T09:29:23.715Z,17.11
2022-09-10T09:32:25.409Z,16.87
2022-09-10T09:35:07.564Z,16.64
2022-09-10T09:38:03.273Z,16.49
2022-09-10T09:40:54.051Z,16.41
2022-09-10T09:43:37.440Z,16.43
2022-09-10T09:49:30.834Z,16.94
2022-09-10T09:52:54.479Z,16.85
2022-09-10T09:59:44.948Z,17.62
2022-09-10T10:06:07.878Z,17.63
2022-09-10T10:09:13.400Z,18.61
2022-09-10T10:16:20.025Z,19.70
2022-09-10T10:26:59.744Z,19.43
2022-09-10T10:30:12.312Z,19.74
2022-09-10T10:37:30.667Z,20.62
2022-09-10T10:41:01.066Z,19.81
2022-09-10T10:52:09.994Z,21.21
2022-09-10T10:55:49.452Z,21.66
2022-09-10T10:59:48.998Z,21.57
2022-09-10T11:06:18.716Z,21.10
2022-09-10T11:16:40.567Z,20.51
2022-09-10T11:31:22.623Z,19.79
2022-09-10T11:35:12.739Z,19.52
2022-09-10T11:38:56.475Z,19.46
2022-09-10T11:45:09.250Z,19.71
2022-09-10T11:49:01.853Z,19.76
2022-09-10T11:52:34.028Z,19.73
2022-09-10T11:59:04.424Z,19.96
2022-09-10T12:02:11.831Z,20.05
2022-09-10T12:05:40.658Z,20.12
2022-09-10T12:08:41.417Z,20.25
2022-09-10T12:15:42.856Z,20.26
2022-09-10T12:23:19.149Z,20.31
2022-09-10T12:30:20.404Z,20.40
2022-09-10T12:59:16.612Z,21.28
2022-09-10T13:14:03.044Z,20.85
2022-09-10T13:27:03.137Z,21.36
2022-09-10T13:29:43.989Z,21.53
2022-09-10T13:32:20.724Z,21.70
2022-09-10T13:35:05.110Z,22.00
2022-09-10T13:38:04.262Z,22.07
2022-09-10T13:40:53.573Z,22.04
2022-09-10T13:43:39.875Z,22.16
2022-09-10T13:46:12.530Z,22.23
2022-09-10T13:48:46.494Z,22.25
2022-09-10T13:51:31.199Z,22.29
2022-09-10T13:54:07.495Z,22.31
2022-09-10T13:56:35.233Z,22.37
2022-09-10T13:59:04.087Z,22.24
2022-09-10T14:01:53.980Z,22.13
2022-09-10T14:04:26.978Z,22.13
2022-09-10T14:07:07.869Z,22.15
2022-09-10T14:09:34.991Z,22.07
2022-09-10T14:12:08.835Z,22.04
2022-09-10T14:14:41.340Z,22.05
2022-09-10T14:17:15.918Z,22.03
2022-09-10T14:19:49.396Z,22.10
2022-09-10T14:22:26.474Z,22.08
2022-09-10T14:25:01.882Z,22.09
2022-09-10T14:27:31.378Z,22.03
2022-09-10T14:30:18.446Z,21.97
2022-09-10T14:32:46.290Z,21.97
2022-09-10T14:35:39.469Z,22.03
2022-09-10T14:38:29.184Z,22.10
2022-09-10T14:41:05.454Z,22.17
2022-09-10T14:43:38.119Z,22.18
2022-09-10T14:46:10.192Z,22.16
2022-09-10T14:49:02.555Z,22.12
2022-09-10T14:51:29.454Z,22.18
2022-09-10T14:53:58.315Z,22.13
2022-09-10T14:56:42.398Z,22.15
2022-09-10T14:59:24.141Z,22.22
2022-09-10T15:01:51.565Z,22.13
2022-09-10T15:04:23.659Z,22.11
2022-09-10T15:06:54.788Z,22.19
2022-09-10T15:09:21.935Z,22.20
2022-09-10T15:11:48.999Z,22.22
2022-09-10T15:14:16.863Z,22.19
2022-09-10T15:16:44.160Z,22.29
2022-09-10T15:19:11.766Z,22.32
2022-09-10T15:21:40.605Z,22.29
2022-09-10T15:24:12.597Z,22.22
2022-09-10T15:26:39.237Z,22.14
2022-09-10T15:29:06.059Z,22.18
2022-09-10T15:31:33.016Z,22.18
2022-09-10T15:33:59.976Z,22.18
2022-09-10T15:36:28.369Z,22.20
2022-09-10T15:38:55.903Z,22.28
2022-09-10T15:41:22.542Z,22.39
2022-09-10T15:43:49.144Z,22.50
2022-09-10T15:46:17.243Z,22.50
2022-09-10T15:48:45.169Z,22.43
2022-09-10T15:51:21.356Z,22.34
2022-09-10T15:53:49.336Z,22.20
2022-09-10T15:56:17.362Z,22.15
2022-09-10T15:58:55.217Z,22.29
2022-09-10T16:01:23.222Z,22.38
2022-09-10T16:03:56.416Z,22.48
2022-09-10T16:06:25.185Z,22.55
2022-09-10T16:08:56.679Z,22.43
2022-09-10T16:11:24.961Z,22.16
2022-09-10T16:13:52.411Z,22.07
2022-09-10T16:16:21.800Z,22.18
2022-09-10T16:18:51.400Z,22.21
2022-09-10T16:21:24.267Z,22.24
2022-09-10T16:23:52.779Z,22.23
2022-09-10T16:26:23.141Z,22.16
2022-09-10T16:28:58.536Z,22.15
2022-09-10T16:31:30.376Z,22.07
2022-09-10T16:33:59.522Z,22.02
2022-09-10T16:36:27.100Z,22.00
2022-09-10T16:38:56.115Z,22.00
2022-09-10T16:41:24.384Z,22.04
2022-09-10T16:43:51.769Z,21.99
2022-09-10T16:46:18.813Z,22.02
2022-09-10T16:48:46.670Z,21.99
2022-09-10T16:51:18.101Z,22.06
2022-09-10T16:53:46.928Z,22.04
2022-09-10T16:56:15.813Z,22.05
2022-09-10T16:58:46.988Z,22.12
2022-09-10T17:01:15.029Z,22.07
2022-09-10T17:03:44.175Z,22.02
2022-09-10T17:06:16.406Z,22.00
2022-09-10T17:08:45.254Z,21.97
2022-09-10T17:11:16.313Z,21.89
2022-09-10T17:13:43.455Z,21.80
2022-09-10T17:16:16.943Z,21.63
2022-09-10T17:18:44.959Z,21.57
2022-09-10T17:21:11.728Z,21.54
2022-09-10T17:23:38.413Z,21.51
2022-09-10T17:26:06.869Z,21.39
2022-09-10T17:28:33.615Z,21.19
2022-09-10T17:31:00.698Z,21.04
2022-09-10T17:33:28.216Z,20.84
2022-09-10T17:36:00.466Z,20.67
2022-09-10T17:38:29.517Z,20.54
2022-09-10T17:41:01.805Z,20.38
2022-09-10T17:43:31.622Z,20.18
2022-09-10T17:45:58.420Z,19.97
2022-09-10T17:48:28.119Z,19.87
2022-09-10T17:50:55.019Z,19.77
2022-09-10T17:53:21.692Z,19.75
2022-09-10T17:55:48.343Z,19.64
2022-09-10T17:58:16.144Z,19.59
2022-09-10T18:00:48.987Z,19.55
2022-09-10T18:03:17.739Z,19.34
2022-09-10T18:05:45.904Z,19.18
2022-09-10T18:08:13.302Z,19.01
2022-09-10T18:10:40.310Z,18.84
2022-09-10T18:13:08.562Z,18.71
2022-09-10T18:15:42.220Z,18.64
2022-09-10T18:18:10.013Z,18.48
2022-09-10T18:20:36.645Z,18.32
2022-09-10T18:23:03.472Z,18.17
2022-09-10T18:25:31.505Z,18.01
2022-09-10T18:28:01.465Z,17.91
2022-09-10T18:30:29.186Z,17.84
2022-09-10T18:32:55.793Z,17.76
2022-09-10T18:35:26.183Z,17.69
2022-09-10T18:37:52.823Z,17.67
2022-09-10T18:40:19.863Z,17.62
2022-09-10T18:42:47.856Z,17.56
2022-09-10T18:45:14.867Z,17.50
2022-09-10T18:47:44.868Z,17.38
2022-09-10T18:50:13.312Z,17.33
2022-09-10T18:52:40.257Z,17.24
2022-09-10T18:55:07.443Z,17.18
2022-09-10T18:57:34.081Z,17.13
2022-09-10T19:00:01.163Z,17.13
2022-09-10T19:02:27.921Z,17.10
2022-09-10T19:05:10.677Z,17.08
2022-09-10T19:07:38.468Z,16.99
2022-09-10T19:10:07.145Z,16.91
2022-09-10T19:12:33.951Z,16.84
2022-09-10T19:15:00.543Z,16.81
2022-09-10T19:17:27.155Z,16.81
2022-09-10T19:19:53.762Z,16.84
2022-09-10T19:22:20.445Z,16.82
2022-09-10T19:24:55.752Z,16.78
2022-09-10T19:27:23.516Z,16.71
2022-09-10T19:29:50.554Z,16.70
2022-09-10T19:32:19.711Z,16.65
2022-09-10T19:34:48.873Z,16.64
2022-09-10T19:37:15.483Z,16.66
2022-09-10T19:39:42.944Z,16.68
2022-09-10T19:42:09.932Z,16.64
2022-09-10T19:44:39.449Z,16.58
2022-09-10T19:47:06.071Z,16.51
2022-09-10T19:49:34.340Z,16.43
2022-09-10T19:52:01.440Z,16.37
2022-09-10T19:54:30.370Z,16.34
2022-09-10T19:56:56.977Z,16.32
2022-09-10T19:59:23.649Z,16.27
2022-09-10T20:01:50.322Z,16.23
2022-09-10T20:04:17.071Z,16.21
2022-09-10T20:06:45.963Z,16.20
2022-09-10T20:09:13.075Z,16.17
2022-09-10T20:11:39.786Z,16.15
2022-09-10T20:14:10.124Z,16.13
2022-09-10T20:16:42.884Z,16.10
2022-09-10T20:19:11.320Z,16.10
2022-09-10T20:21:38.633Z,16.11
2022-09-10T20:24:07.996Z,16.13
2022-09-10T20:26:41.261Z,16.10
2022-09-10T20:29:13.253Z,16.06
2022-09-10T20:31:41.213Z,15.98
2022-09-10T20:34:12.282Z,15.90
2022-09-10T20:36:41.308Z,15.89
2022-09-10T20:39:08.517Z,15.89
2022-09-10T20:41:35.263Z,15.87
2022-09-10T20:44:02.987Z,15.88
2022-09-10T20:46:31.090Z,15.84
2022-09-10T20:49:04.452Z,15.81
2022-09-10T20:51:35.913Z,15.81
2022-09-10T20:54:05.888Z,15.82
2022-09-10T20:56:33.726Z,15.82
2022-09-10T20:59:02.046Z,15.86
2022-09-10T21:01:33.159Z,15.85
2022-09-10T21:04:01.554Z,15.83
2022-09-10T21:06:31.210Z,15.80
2022-09-10T21:08:59.616Z,15.81
2022-09-10T21:11:31.058Z,15.76
2022-09-10T21:14:02.356Z,15.73
2022-09-10T21:16:31.582Z,15.72
2022-09-10T21:19:04.544Z,15.69
2022-09-10T21:21:34.240Z,15.67
2022-09-10T21:24:04.025Z,15.63
2022-09-10T21:26:34.295Z,15.59
2022-09-10T21:29:04.339Z,15.56
2022-09-10T21:31:32.127Z,15.57
2022-09-10T21:34:03.126Z,15.53
2022-09-10T21:36:31.834Z,15.53
2022-09-10T21:39:00.991Z,15.51
2022-09-10T21:41:33.534Z,15.51
2022-09-10T21:44:03.056Z,15.50
2022-09-10T21:46:30.717Z,15.46
2022-09-10T21:48:57.404Z,15.41
2022-09-10T21:51:24.496Z,15.40
2022-09-10T21:53:56.300Z,15.36
2022-09-10T21:56:24.846Z,15.33
2022-09-10T21:58:51.501Z,15.31
2022-09-10T22:01:21.025Z,15.30
2022-09-10T22:03:48.683Z,15.30
2022-09-10T22:06:23.147Z,15.30
2022-09-10T22:08:52.368Z,15.29
2022-09-10T22:11:24.267Z,15.33
2022-09-10T22:13:53.138Z,15.35
2022-09-10T22:16:21.112Z,15.36
2022-09-10T22:18:48.567Z,15.29
2022-09-10T22:21:16.593Z,15.27
2022-09-10T22:23:44.456Z,15.24
2022-09-10T22:26:17.385Z,15.21
2022-09-10T22:28:44.655Z,15.19
2022-09-10T22:31:13.048Z,15.16
2022-09-10T22:33:41.619Z,15.12
2022-09-10T22:36:18.814Z,15.11
2022-09-10T22:38:56.307Z,15.08
2022-09-10T22:41:23.213Z,15.07
2022-09-10T22:43:50.398Z,15.03
2022-09-10T22:46:19.091Z,14.99
2022-09-10T22:48:46.648Z,14.98
2022-09-10T22:51:18.795Z,14.98
2022-09-10T22:53:46.652Z,14.97
2022-09-10T22:56:14.675Z,14.94
2022-09-10T22:58:41.410Z,14.92
2022-09-10T23:01:10.334Z,14.91
2022-09-10T23:03:38.636Z,14.90
2022-09-10T23:06:06.629Z,14.89
2022-09-10T23:08:35.097Z,14.89
2022-09-10T23:11:31.959Z,14.86
2022-09-10T23:14:04.612Z,14.83
2022-09-10T23:16:34.462Z,14.83
2022-09-10T23:19:04.088Z,14.81
2022-09-10T23:21:32.600Z,14.79
2022-09-10T23:24:05.249Z,14.75
2022-09-10T23:26:31.911Z,14.74
2022-09-10T23:29:00.420Z,14.72
2022-09-10T23:31:29.471Z,14.67
2022-09-10T23:34:01.956Z,14.63
2022-09-10T23:36:34.168Z,14.59
2022-09-10T23:39:03.248Z,14.55
2022-09-10T23:41:32.798Z,14.52
2022-09-10T23:43:59.449Z,14.48
2022-09-10T23:46:26.582Z,14.43
2022-09-10T23:48:53.170Z,14.43
2022-09-10T23:51:21.100Z,14.42
2022-09-10T23:53:48.806Z,14.40
2022-09-10T23:56:18.465Z,14.38
2022-09-10T23:58:45.649Z,14.36
